Time;durP1;ratioP1;P1;durP2;ratioP2;P2;SDS_P1;SDS_P2;PMS_P1;PMS_P2;Temp;Humidity;BMP_temperature;BMP_pressure;BME280_temperature;BME280_humidity;BME280_pressure;Samples;Min_cycle;Max_cycle;Signal;HPM_P1;HPM_P2
2023/09/29 00:01:42;;;;;;;;;;;20.90;55.20;;;;;;1528374;76;806;-67
2023/09/29 00:03:46;;;;;;;;;;;20.80;55.00;;;;;;1531271;76;737;-73
2023/09/29 00:05:49;;;;;;;;;;;20.90;55.20;;;;;;1526675;76;1467;-70
2023/09/29 00:07:54;;;;;;;;;;;20.90;55.30;;;;;;1519862;76;1527;-70
2023/09/29 00:09:56;;;;;;;;;;;20.90;55.30;;;;;;1530409;76;1142;-71
2023/09/29 00:11:59;;;;;;;;;;;20.90;55.40;;;;;;1528153;76;755;-70
2023/09/29 00:14:01;;;;;;;;;;;20.90;55.40;;;;;;1528187;76;744;-72
2023/09/29 00:16:03;;;;;;;;;;;20.90;55.40;;;;;;1526320;76;735;-72
2023/09/29 00:18:08;;;;;;;;;;;20.90;55.50;;;;;;1528481;76;672;-73
2023/09/29 00:20:22;;;;;;;;;;;20.90;55.40;;;;;;1527551;76;1113;-71
2023/09/29 00:22:20;;;;;;;;;;;20.90;55.30;;;;;;1526028;77;1580;-71
2023/09/29 00:24:22;;;;;;;;;;;20.90;55.20;;;;;;1531215;76;811;-72
2023/09/29 00:26:24;;;;;;;;;;;20.90;55.10;;;;;;1526615;77;728;-73
2023/09/29 00:28:26;;;;;;;;;;;20.90;55.10;;;;;;1527809;77;1122;-70
2023/09/29 00:30:27;;;;;;;;;;;20.90;55.00;;;;;;1531301;76;691;-69
2023/09/29 00:32:29;;;;;;;;;;;20.90;55.10;;;;;;1526070;76;1944;-71
2023/09/29 00:34:31;;;;;;;;;;;20.90;55.10;;;;;;1525750;76;740;-70
2023/09/29 00:36:33;;;;;;;;;;;20.90;55.00;;;;;;1531066;77;1569;-73
2023/09/29 00:38:35;;;;;;;;;;;20.80;54.90;;;;;;1528699;77;1155;-70
2023/09/29 00:40:37;;;;;;;;;;;20.90;55.10;;;;;;1525757;76;694;-71
2023/09/29 00:42:42;;;;;;;;;;;20.90;55.20;;;;;;1527272;76;770;-74
2023/09/29 00:44:44;;;;;;;;;;;20.90;55.10;;;;;;1531720;76;729;-71
2023/09/29 00:46:46;;;;;;;;;;;20.90;55.10;;;;;;1531470;76;869;-71
2023/09/29 00:48:49;;;;;;;;;;;20.80;55.00;;;;;;1525330;76;1160;-71
2023/09/29 00:50:51;;;;;;;;;;;20.90;55.00;;;;;;1526203;77;1553;-71
2023/09/29 00:52:53;;;;;;;;;;;20.90;55.00;;;;;;1528375;76;1929;-70
2023/09/29 00:54:56;;;;;;;;;;;20.90;54.90;;;;;;1527515;76;753;-70
2023/09/29 00:56:59;;;;;;;;;;;20.90;54.90;;;;;;1526189;76;730;-73
2023/09/29 00:59:01;;;;;;;;;;;20.90;54.90;;;;;;1530597;76;1161;-73
2023/09/29 01:01:06;;;;;;;;;;;20.80;54.80;;;;;;1528625;76;725;-71
2023/09/29 01:03:08;;;;;;;;;;;20.80;54.80;;;;;;1526942;76;1678;-73
2023/09/29 01:05:12;;;;;;;;;;;20.90;54.90;;;;;;1525618;77;1603;-72
2023/09/29 01:07:15;;;;;;;;;;;20.90;54.80;;;;;;1528289;76;798;-71
2023/09/29 01:09:17;;;;;;;;;;;20.90;54.80;;;;;;1521562;76;1166;-69
2023/09/29 01:11:20;;;;;;;;;;;20.90;54.80;;;;;;1528397;76;703;-70
2023/09/29 01:13:22;;;;;;;;;;;20.90;54.70;;;;;;1529621;76;1908;-71
2023/09/29 01:15:24;;;;;;;;;;;20.90;54.80;;;;;;1529607;77;733;-73
2023/09/29 01:17:26;;;;;;;;;;;20.90;54.80;;;;;;1527254;77;735;-70
2023/09/29 01:19:28;;;;;;;;;;;20.90;54.70;;;;;;1528032;76;1563;-70
2023/09/29 01:21:34;;;;;;;;;;;20.90;54.70;;;;;;1529554;77;725;-70
2023/09/29 01:23:38;;;;;;;;;;;20.90;54.60;;;;;;1525780;77;1444;-70
2023/09/29 01:25:49;;;;;;;;;;;20.90;54.60;;;;;;1522505;77;868;-70
2023/09/29 01:27:48;;;;;;;;;;;20.80;54.50;;;;;;1527382;77;1008;-70
2023/09/29 01:29:50;;;;;;;;;;;20.90;54.60;;;;;;1530363;77;1147;-75
2023/09/29 01:31:52;;;;;;;;;;;20.90;54.60;;;;;;1521778;77;1550;-71
2023/09/29 01:33:54;;;;;;;;;;;20.80;54.60;;;;;;1531532;77;1948;-73
2023/09/29 01:35:56;;;;;;;;;;;20.90;54.70;;;;;;1530666;77;709;-71
2023/09/29 01:38:01;;;;;;;;;;;20.90;54.70;;;;;;1528076;76;727;-71
2023/09/29 01:40:03;;;;;;;;;;;20.80;54.50;;;;;;1528835;77;1127;-73
2023/09/29 01:42:07;;;;;;;;;;;20.80;54.50;;;;;;1528967;76;725;-73
2023/09/29 01:44:08;;;;;;;;;;;20.90;54.60;;;;;;1531643;76;1687;-72
2023/09/29 01:46:11;;;;;;;;;;;20.90;54.50;;;;;;1529717;76;1566;-70
2023/09/29 01:48:13;;;;;;;;;;;20.90;54.60;;;;;;1524989;76;762;-74
2023/09/29 01:50:16;;;;;;;;;;;20.80;54.40;;;;;;1525369;76;1174;-70
2023/09/29 01:52:18;;;;;;;;;;;20.80;54.40;;;;;;1527213;76;766;-70
2023/09/29 01:54:20;;;;;;;;;;;20.90;54.50;;;;;;1527799;76;1956;-72
2023/09/29 01:56:22;;;;;;;;;;;20.80;54.30;;;;;;1524646;76;762;-73
2023/09/29 01:58:24;;;;;;;;;;;20.80;54.20;;;;;;1526362;76;1148;-70
2023/09/29 02:00:28;;;;;;;;;;;20.80;54.20;;;;;;1532633;76;1339;-73
2023/09/29 02:02:30;;;;;;;;;;;20.80;54.20;;;;;;1525444;76;1673;-71
2023/09/29 02:04:32;;;;;;;;;;;20.80;54.20;;;;;;1531849;76;774;-72
2023/09/29 02:06:34;;;;;;;;;;;20.80;54.30;;;;;;1526078;76;771;-73
2023/09/29 02:08:36;;;;;;;;;;;20.90;54.40;;;;;;1531023;76;1149;-73
2023/09/29 02:10:38;;;;;;;;;;;20.80;54.20;;;;;;1529046;76;746;-71
2023/09/29 02:12:47;;;;;;;;;;;20.80;54.20;;;;;;1530995;76;711;-74
2023/09/29 02:14:51;;;;;;;;;;;20.80;54.20;;;;;;1527481;76;1552;-72
2023/09/29 02:16:53;;;;;;;;;;;20.80;54.20;;;;;;1532406;76;674;-73
2023/09/29 02:18:55;;;;;;;;;;;20.90;54.30;;;;;;1530608;77;1154;-70
2023/09/29 02:20:57;;;;;;;;;;;20.90;54.30;;;;;;1524039;77;823;-70
2023/09/29 02:22:59;;;;;;;;;;;20.80;54.20;;;;;;1522751;77;766;-70
2023/09/29 02:25:09;;;;;;;;;;;20.80;54.10;;;;;;1526941;77;698;-70
2023/09/29 02:27:04;;;;;;;;;;;20.80;54.00;;;;;;1524884;77;1646;-72
2023/09/29 02:29:07;;;;;;;;;;;20.80;53.80;;;;;;1530937;76;1602;-70
2023/09/29 02:31:15;;;;;;;;;;;20.80;53.80;;;;;;1520986;76;695;-71
2023/09/29 02:33:17;;;;;;;;;;;20.80;53.70;;;;;;1520261;76;1933;-70
2023/09/29 02:35:19;;;;;;;;;;;20.80;53.60;;;;;;1520627;76;730;-70
2023/09/29 02:37:21;;;;;;;;;;;20.80;53.60;;;;;;1517759;76;679;-70
2023/09/29 02:39:23;;;;;;;;;;;20.80;53.60;;;;;;1518673;76;1147;-70
2023/09/29 02:41:25;;;;;;;;;;;20.80;53.60;;;;;;1518949;77;738;-75
2023/09/29 02:43:30;;;;;;;;;;;20.80;53.60;;;;;;1520913;76;1503;-70
2023/09/29 02:45:31;;;;;;;;;;;20.80;53.60;;;;;;1522039;76;1628;-70
2023/09/29 02:47:33;;;;;;;;;;;20.90;53.70;;;;;;1514681;76;956;-71
2023/09/29 02:49:35;;;;;;;;;;;20.90;53.60;;;;;;1524334;76;1239;-72
2023/09/29 02:51:37;;;;;;;;;;;20.80;53.60;;;;;;1519010;76;645;-71
2023/09/29 02:53:39;;;;;;;;;;;20.80;53.60;;;;;;1518756;76;1948;-71
2023/09/29 02:55:41;;;;;;;;;;;20.80;53.60;;;;;;1517346;76;737;-72
2023/09/29 02:57:43;;;;;;;;;;;20.80;53.40;;;;;;1523928;76;1322;-70
2023/09/29 02:59:46;;;;;;;;;;;20.80;53.40;;;;;;1521143;76;1128;-70
2023/09/29 03:01:49;;;;;;;;;;;20.80;53.40;;;;;;1519700;76;783;-71
2023/09/29 03:03:54;;;;;;;;;;;20.80;53.50;;;;;;1521801;76;800;-71
2023/09/29 03:05:55;;;;;;;;;;;20.80;53.40;;;;;;1522206;76;1685;-75
2023/09/29 03:07:57;;;;;;;;;;;20.80;53.20;;;;;;1520781;76;570;-73
2023/09/29 03:09:58;;;;;;;;;;;20.80;53.30;;;;;;1522230;76;1142;-74
2023/09/29 03:12:01;;;;;;;;;;;20.80;53.20;;;;;;1517625;76;708;-71
2023/09/29 03:14:02;;;;;;;;;;;20.80;53.10;;;;;;1522170;76;1940;-71
2023/09/29 03:16:07;;;;;;;;;;;20.80;53.10;;;;;;1521968;76;806;-71
2023/09/29 03:18:09;;;;;;;;;;;20.70;53.10;;;;;;1515811;76;1695;-71
2023/09/29 03:20:11;;;;;;;;;;;20.80;53.10;;;;;;1521411;76;1124;-73
2023/09/29 03:22:13;;;;;;;;;;;20.80;53.10;;;;;;1521809;76;728;-70
2023/09/29 03:24:15;;;;;;;;;;;20.80;53.10;;;;;;1525399;76;754;-70
2023/09/29 03:26:25;;;;;;;;;;;20.70;53.00;;;;;;1524101;76;735;-71
2023/09/29 03:28:23;;;;;;;;;;;20.80;53.00;;;;;;1515068;76;1608;-71
2023/09/29 03:30:25;;;;;;;;;;;20.80;53.00;;;;;;1522324;76;788;-72
2023/09/29 03:32:27;;;;;;;;;;;20.80;52.90;;;;;;1526809;76;730;-72
2023/09/29 03:34:29;;;;;;;;;;;20.80;52.80;;;;;;1487080;78;1944;-72
2023/09/29 03:36:31;;;;;;;;;;;20.70;52.90;;;;;;1520571;76;799;-72
2023/09/29 03:38:33;;;;;;;;;;;20.80;52.90;;;;;;1518587;76;1186;-72
2023/09/29 03:40:35;;;;;;;;;;;20.80;52.90;;;;;;1521096;76;689;-72
2023/09/29 03:42:37;;;;;;;;;;;20.80;52.90;;;;;;1527179;76;680;-73
2023/09/29 03:44:39;;;;;;;;;;;20.80;52.90;;;;;;1518149;76;746;-73
2023/09/29 03:46:41;;;;;;;;;;;20.70;52.90;;;;;;1526429;76;926;-72
2023/09/29 03:48:46;;;;;;;;;;;20.70;52.80;;;;;;1518627;76;1127;-70
2023/09/29 03:50:49;;;;;;;;;;;20.80;52.80;;;;;;1520907;76;1652;-70
2023/09/29 03:52:50;;;;;;;;;;;20.80;52.80;;;;;;1515737;76;1933;-71
2023/09/29 03:54:52;;;;;;;;;;;20.80;52.80;;;;;;1520344;76;1949;-72
2023/09/29 03:56:55;;;;;;;;;;;20.80;52.70;;;;;;1524867;76;644;-73
2023/09/29 03:58:56;;;;;;;;;;;20.70;52.60;;;;;;1522931;76;1193;-71
2023/09/29 04:00:58;;;;;;;;;;;20.80;52.50;;;;;;1521097;76;813;-73
2023/09/29 04:03:00;;;;;;;;;;;20.80;52.60;;;;;;1523700;76;699;-75
2023/09/29 04:05:02;;;;;;;;;;;20.80;52.60;;;;;;1519940;76;716;-70
2023/09/29 04:07:04;;;;;;;;;;;20.70;52.60;;;;;;1517299;76;1528;-70
2023/09/29 04:09:06;;;;;;;;;;;20.80;52.60;;;;;;1521318;76;1172;-74
2023/09/29 04:11:08;;;;;;;;;;;20.70;52.60;;;;;;1524869;76;684;-70
2023/09/29 04:13:10;;;;;;;;;;;20.80;52.50;;;;;;1518873;76;746;-70
2023/09/29 04:15:12;;;;;;;;;;;20.80;52.50;;;;;;1523996;76;1948;-70
2023/09/29 04:17:14;;;;;;;;;;;20.80;52.30;;;;;;1519637;76;806;-70
2023/09/29 04:19:16;;;;;;;;;;;20.80;52.30;;;;;;1522134;76;1144;-70
2023/09/29 04:21:18;;;;;;;;;;;20.80;52.40;;;;;;1524191;76;632;-72
2023/09/29 04:23:20;;;;;;;;;;;20.80;52.40;;;;;;1520603;76;659;-72
2023/09/29 04:25:21;;;;;;;;;;;20.80;52.50;;;;;;1525841;76;760;-71
2023/09/29 04:27:26;;;;;;;;;;;20.80;52.50;;;;;;1515425;76;715;-68
2023/09/29 04:29:28;;;;;;;;;;;20.80;52.50;;;;;;1516923;76;1175;-72
2023/09/29 04:31:30;;;;;;;;;;;20.80;52.80;;;;;;1522490;76;736;-64
2023/09/29 04:33:32;;;;;;;;;;;20.80;52.90;;;;;;1518534;76;653;-67
2023/09/29 04:35:34;;;;;;;;;;;20.80;53.30;;;;;;1521294;76;811;-68
2023/09/29 04:37:36;;;;;;;;;;;20.80;53.60;;;;;;1516243;76;794;-65
2023/09/29 04:39:38;;;;;;;;;;;20.80;53.70;;;;;;1521456;76;1090;-66
2023/09/29 04:41:40;;;;;;;;;;;20.80;53.90;;;;;;1517436;76;804;-67
2023/09/29 04:43:44;;;;;;;;;;;20.80;54.00;;;;;;1520253;76;741;-67
2023/09/29 04:45:45;;;;;;;;;;;20.70;53.90;;;;;;1519938;76;838;-68
2023/09/29 04:47:47;;;;;;;;;;;20.80;54.00;;;;;;1520959;76;631;-66
2023/09/29 04:49:49;;;;;;;;;;;20.80;54.20;;;;;;1525434;76;1127;-70
2023/09/29 04:51:51;;;;;;;;;;;20.80;54.20;;;;;;1522407;76;826;-70
2023/09/29 04:53:53;;;;;;;;;;;20.80;54.30;;;;;;1518784;76;1932;-71
2023/09/29 04:55:55;;;;;;;;;;;20.80;54.20;;;;;;1522905;76;741;-71
2023/09/29 04:57:57;;;;;;;;;;;20.90;54.20;;;;;;1513216;76;681;-71
2023/09/29 04:59:59;;;;;;;;;;;20.80;54.10;;;;;;1516862;76;1091;-71
2023/09/29 05:02:01;;;;;;;;;;;20.80;54.00;;;;;;1520843;76;649;-72
2023/09/29 05:04:03;;;;;;;;;;;20.80;54.00;;;;;;1520325;76;1558;-69
2023/09/29 05:06:05;;;;;;;;;;;20.80;54.00;;;;;;1516391;76;757;-72
2023/09/29 05:08:07;;;;;;;;;;;20.80;53.90;;;;;;1519982;76;794;-71
2023/09/29 05:10:11;;;;;;;;;;;20.80;53.10;;;;;;1518994;76;1139;-67
2023/09/29 05:12:13;;;;;;;;;;;20.80;52.90;;;;;;1517024;76;761;-68
2023/09/29 07:34:27;;;;;;;;;;;21.30;56.00;;;;;;1605378;72;640;-57
2023/09/29 07:36:33;;;;;;;;;;;21.50;52.40;;;;;;1581287;73;757;-58
2023/09/29 07:38:35;;;;;;;;;;;21.50;52.20;;;;;;1580906;73;688;-59
2023/09/29 07:40:37;;;;;;;;;;;21.60;52.00;;;;;;1566329;73;1216;-60
2023/09/29 07:42:39;;;;;;;;;;;21.60;52.40;;;;;;1554210;75;714;-57
2023/09/29 07:44:41;;;;;;;;;;;21.60;52.40;;;;;;1561220;75;760;-60
2023/09/29 07:46:43;;;;;;;;;;;21.60;51.80;;;;;;1569562;74;724;-59
2023/09/29 07:48:44;;;;;;;;;;;21.60;51.80;;;;;;1547941;75;695;-60
2023/09/29 07:50:46;;;;;;;;;;;21.70;52.00;;;;;;1555548;75;1163;-58
2023/09/29 07:52:48;;;;;;;;;;;21.70;52.00;;;;;;1560970;75;1927;-60
2023/09/29 07:54:50;;;;;;;;;;;21.70;51.90;;;;;;1566840;75;714;-59
2023/09/29 07:56:52;;;;;;;;;;;21.70;52.00;;;;;;1564548;75;709;-59
2023/09/29 07:58:54;;;;;;;;;;;21.70;51.70;;;;;;1560240;75;704;-58
2023/09/29 08:00:56;;;;;;;;;;;21.70;51.90;;;;;;1559404;74;1199;-57
2023/09/29 08:02:58;;;;;;;;;;;21.70;52.30;;;;;;1547095;75;707;-60
2023/09/29 08:05:00;;;;;;;;;;;21.70;52.20;;;;;;1560913;75;725;-59
2023/09/29 08:07:02;;;;;;;;;;;21.80;52.10;;;;;;1561717;75;670;-57
2023/09/29 08:09:05;;;;;;;;;;;21.70;52.10;;;;;;1560061;75;790;-59
2023/09/29 08:11:07;;;;;;;;;;;21.70;52.10;;;;;;1558774;75;1152;-59
2023/09/29 08:13:09;;;;;;;;;;;21.70;52.20;;;;;;1552766;75;1959;-59
2023/09/29 08:15:13;;;;;;;;;;;21.70;52.30;;;;;;1561156;75;821;-60
2023/09/29 08:17:15;;;;;;;;;;;21.70;52.30;;;;;;1560436;75;724;-62
2023/09/29 08:19:17;;;;;;;;;;;21.70;52.30;;;;;;1556993;75;705;-60
2023/09/29 08:21:18;;;;;;;;;;;21.70;52.30;;;;;;1551914;75;1176;-59
2023/09/29 08:23:20;;;;;;;;;;;21.70;52.40;;;;;;1553231;75;795;-58
2023/09/29 08:25:22;;;;;;;;;;;21.70;52.60;;;;;;1561011;75;854;-60
2023/09/29 08:27:24;;;;;;;;;;;21.70;52.50;;;;;;1558953;75;749;-60
2023/09/29 08:29:26;;;;;;;;;;;21.70;52.60;;;;;;1565954;74;704;-58
2023/09/29 08:31:28;;;;;;;;;;;21.70;52.60;;;;;;1559870;75;1143;-58
2023/09/29 08:33:30;;;;;;;;;;;21.70;52.50;;;;;;1555235;75;1920;-59
2023/09/29 08:35:32;;;;;;;;;;;21.70;52.70;;;;;;1545203;75;636;-58
2023/09/29 08:37:34;;;;;;;;;;;21.70;52.70;;;;;;1548272;75;703;-58
2023/09/29 08:39:36;;;;;;;;;;;21.70;52.80;;;;;;1549813;75;793;-58
2023/09/29 08:41:40;;;;;;;;;;;21.80;52.80;;;;;;1562623;75;1177;-56
2023/09/29 08:43:42;;;;;;;;;;;21.70;52.90;;;;;;1546062;75;688;-57
2023/09/29 08:45:43;;;;;;;;;;;21.80;52.80;;;;;;1544086;75;650;-60
2023/09/29 08:47:47;;;;;;;;;;;21.80;52.70;;;;;;1549867;75;1322;-58
2023/09/29 08:49:49;;;;;;;;;;;21.80;52.90;;;;;;1558299;75;1845;-58
2023/09/29 08:51:51;;;;;;;;;;;21.80;52.80;;;;;;1548179;75;1111;-59
2023/09/29 08:53:53;;;;;;;;;;;21.80;52.80;;;;;;1557397;75;1908;-57
2023/09/29 08:55:56;;;;;;;;;;;21.80;52.70;;;;;;1539553;75;639;-59
2023/09/29 08:57:58;;;;;;;;;;;21.80;52.60;;;;;;1543137;75;761;-57
2023/09/29 09:00:00;;;;;;;;;;;21.80;52.70;;;;;;1561017;75;1092;-60
2023/09/29 09:02:02;;;;;;;;;;;21.80;52.60;;;;;;1554229;75;787;-60
2023/09/29 09:04:04;;;;;;;;;;;21.80;52.70;;;;;;1560804;75;665;-59
2023/09/29 09:06:08;;;;;;;;;;;21.80;52.70;;;;;;1548325;75;752;-58
2023/09/29 09:08:11;;;;;;;;;;;21.80;52.60;;;;;;1550438;75;1367;-58
2023/09/29 09:10:13;;;;;;;;;;;21.80;52.90;;;;;;1547370;75;1107;-59
2023/09/29 09:12:15;;;;;;;;;;;21.80;53.60;;;;;;1552144;75;731;-59
2023/09/29 09:14:18;;;;;;;;;;;21.80;53.30;;;;;;1538301;75;1920;-59
2023/09/29 09:16:20;;;;;;;;;;;21.90;53.10;;;;;;1544954;75;887;-58
2023/09/29 09:18:23;;;;;;;;;;;21.90;52.80;;;;;;1546304;75;747;-59
2023/09/29 09:20:26;;;;;;;;;;;21.80;52.80;;;;;;1544581;75;1109;-58
2023/09/29 09:22:32;;;;;;;;;;;21.80;52.70;;;;;;1552741;75;687;-58
2023/09/29 09:24:31;;;;;;;;;;;21.80;52.30;;;;;;1549914;75;1386;-58
2023/09/29 09:26:33;;;;;;;;;;;21.90;52.80;;;;;;1553859;75;778;-57
2023/09/29 09:28:35;;;;;;;;;;;21.90;52.80;;;;;;1554583;75;850;-57
2023/09/29 09:30:37;;;;;;;;;;;21.80;52.60;;;;;;1547826;75;1101;-58
2023/09/29 09:32:41;;;;;;;;;;;21.80;52.50;;;;;;1554699;75;789;-57
2023/09/29 09:34:43;;;;;;;;;;;21.90;52.90;;;;;;1555094;75;1957;-58
2023/09/29 09:36:46;;;;;;;;;;;21.90;52.70;;;;;;1551723;76;726;-58
2023/09/29 09:38:49;;;;;;;;;;;21.90;52.50;;;;;;1546587;76;754;-58
2023/09/29 09:40:50;;;;;;;;;;;21.80;52.50;;;;;;1547360;76;1230;-57
2023/09/29 09:43:02;;;;;;;;;;;21.90;52.70;;;;;;1553634;75;727;-56
2023/09/29 09:44:59;;;;;;;;;;;21.90;52.60;;;;;;1556809;75;1503;-56
2023/09/29 09:47:02;;;;;;;;;;;21.80;52.80;;;;;;1552015;76;688;-57
2023/09/29 09:49:08;;;;;;;;;;;21.80;52.90;;;;;;1544981;76;788;-58
2023/09/29 09:51:08;;;;;;;;;;;21.90;53.20;;;;;;1545992;76;1496;-59
2023/09/29 09:53:13;;;;;;;;;;;21.90;53.00;;;;;;1550383;76;669;-59
2023/09/29 09:55:15;;;;;;;;;;;21.90;52.80;;;;;;1547867;75;1063;-57
2023/09/29 09:57:20;;;;;;;;;;;21.90;52.70;;;;;;1554383;76;1113;-58
2023/09/29 09:59:22;;;;;;;;;;;21.90;52.80;;;;;;1556296;75;725;-57
2023/09/29 10:01:25;;;;;;;;;;;21.90;52.80;;;;;;1547783;76;1108;-57
2023/09/29 10:03:27;;;;;;;;;;;21.90;52.70;;;;;;1552719;76;809;-56
2023/09/29 10:05:31;;;;;;;;;;;21.90;52.60;;;;;;1558186;76;800;-54
2023/09/29 10:07:34;;;;;;;;;;;21.90;52.60;;;;;;1549425;76;810;-57
2023/09/29 10:09:45;;;;;;;;;;;21.90;52.60;;;;;;1551439;76;961;-60
2023/09/29 10:11:49;;;;;;;;;;;21.90;52.80;;;;;;1551775;74;1068;-56
2023/09/29 10:13:52;;;;;;;;;;;21.90;53.00;;;;;;1542661;75;1919;-57
2023/09/29 10:15:56;;;;;;;;;;;21.90;52.80;;;;;;1548475;76;1650;-57
2023/09/29 10:17:58;;;;;;;;;;;21.90;52.70;;;;;;1547154;76;752;-58
2023/09/29 10:20:00;;;;;;;;;;;21.90;52.70;;;;;;1552992;74;1100;-59
2023/09/29 10:22:02;;;;;;;;;;;21.90;52.60;;;;;;1553334;76;721;-59
2023/09/29 10:24:05;;;;;;;;;;;21.90;52.80;;;;;;1554639;76;719;-57
2023/09/29 10:26:10;;;;;;;;;;;21.90;52.90;;;;;;1554562;76;780;-56
2023/09/29 10:28:12;;;;;;;;;;;21.90;53.00;;;;;;1548145;75;1508;-60
2023/09/29 10:30:18;;;;;;;;;;;21.90;52.90;;;;;;1545664;74;1124;-59
2023/09/29 10:32:20;;;;;;;;;;;21.90;52.90;;;;;;1543400;75;1495;-57
2023/09/29 10:34:21;;;;;;;;;;;21.90;53.00;;;;;;1544420;75;1933;-58
2023/09/29 10:36:24;;;;;;;;;;;21.90;53.00;;;;;;1555578;75;786;-59
2023/09/29 10:38:26;;;;;;;;;;;21.90;52.90;;;;;;1548487;76;736;-60
2023/09/29 10:40:32;;;;;;;;;;;21.90;53.00;;;;;;1559441;74;1252;-54
2023/09/29 10:42:33;;;;;;;;;;;21.90;53.00;;;;;;1559134;74;2088;-55
2023/09/29 10:44:37;;;;;;;;;;;21.90;53.10;;;;;;1553342;75;751;-60
2023/09/29 10:46:38;;;;;;;;;;;21.90;53.20;;;;;;1560284;74;1778;-59
2023/09/29 10:48:50;;;;;;;;;;;21.90;52.80;;;;;;1530655;76;1008;-60
2023/09/29 10:50:51;;;;;;;;;;;21.90;53.20;;;;;;1557103;75;1119;-58
2023/09/29 10:52:53;;;;;;;;;;;21.90;53.30;;;;;;1560423;75;720;-56
2023/09/29 10:55:00;;;;;;;;;;;21.90;53.30;;;;;;1555392;76;1934;-58
2023/09/29 10:56:59;;;;;;;;;;;21.90;53.30;;;;;;1557181;75;1326;-58
2023/09/29 10:59:02;;;;;;;;;;;21.90;53.30;;;;;;1560146;75;724;-54
2023/09/29 11:01:04;;;;;;;;;;;21.90;53.30;;;;;;1557354;74;2073;-58
2023/09/29 11:03:07;;;;;;;;;;;21.90;53.40;;;;;;1554722;76;634;-57
2023/09/29 11:05:09;;;;;;;;;;;21.90;53.40;;;;;;1553578;75;818;-60
2023/09/29 11:07:11;;;;;;;;;;;21.90;53.40;;;;;;1562910;75;778;-60
2023/09/29 11:09:19;;;;;;;;;;;22.00;53.40;;;;;;1557204;74;726;-60
2023/09/29 11:11:20;;;;;;;;;;;21.90;53.40;;;;;;1560447;74;1705;-55
2023/09/29 11:13:23;;;;;;;;;;;21.90;53.40;;;;;;1560050;75;725;-58
2023/09/29 11:15:26;;;;;;;;;;;21.90;53.50;;;;;;1558252;75;1912;-58
2023/09/29 11:17:28;;;;;;;;;;;21.90;53.50;;;;;;1560390;75;756;-56
2023/09/29 11:19:31;;;;;;;;;;;21.90;53.40;;;;;;1559666;75;749;-57
2023/09/29 11:21:34;;;;;;;;;;;21.90;53.40;;;;;;1554501;74;1101;-56
2023/09/29 11:23:41;;;;;;;;;;;21.90;53.40;;;;;;1555438;76;701;-59
2023/09/29 11:25:48;;;;;;;;;;;21.90;53.20;;;;;;1554285;75;988;-58
2023/09/29 11:27:51;;;;;;;;;;;21.90;53.40;;;;;;1558733;74;704;-59
2023/09/29 11:29:54;;;;;;;;;;;21.90;53.30;;;;;;1554805;75;737;-59
2023/09/29 11:31:57;;;;;;;;;;;21.90;53.20;;;;;;1553397;75;1081;-56
2023/09/29 11:33:59;;;;;;;;;;;21.90;53.10;;;;;;1551947;76;1905;-56
2023/09/29 11:36:05;;;;;;;;;;;21.90;53.20;;;;;;1558958;74;1071;-57
2023/09/29 11:38:06;;;;;;;;;;;21.90;53.20;;;;;;1561991;74;1809;-59
2023/09/29 11:40:11;;;;;;;;;;;21.90;53.10;;;;;;1562446;76;1144;-57
2023/09/29 11:42:12;;;;;;;;;;;21.90;53.20;;;;;;1558153;75;1657;-57
2023/09/29 11:44:14;;;;;;;;;;;21.90;53.10;;;;;;1551893;75;721;-57
2023/09/29 11:46:16;;;;;;;;;;;21.90;53.00;;;;;;1551281;76;728;-59
2023/09/29 11:48:18;;;;;;;;;;;21.90;53.00;;;;;;1562911;75;749;-59
2023/09/29 11:50:21;;;;;;;;;;;21.90;53.10;;;;;;1560350;75;1132;-58
2023/09/29 11:52:23;;;;;;;;;;;21.90;53.10;;;;;;1558910;76;815;-57
2023/09/29 11:54:25;;;;;;;;;;;21.90;53.10;;;;;;1557339;76;1957;-58
2023/09/29 11:56:26;;;;;;;;;;;21.80;52.90;;;;;;1551797;76;794;-57
2023/09/29 11:58:29;;;;;;;;;;;21.90;53.00;;;;;;1559909;75;781;-57
2023/09/29 12:00:31;;;;;;;;;;;21.90;53.10;;;;;;1558198;74;1065;-57
2023/09/29 12:02:33;;;;;;;;;;;21.90;53.10;;;;;;1562214;75;747;-57
2023/09/29 12:04:35;;;;;;;;;;;21.90;53.00;;;;;;1555416;74;710;-56
2023/09/29 12:06:39;;;;;;;;;;;21.80;52.80;;;;;;1559748;75;712;-57
2023/09/29 12:08:41;;;;;;;;;;;21.90;53.00;;;;;;1561408;75;741;-57
2023/09/29 12:10:42;;;;;;;;;;;21.90;53.00;;;;;;1563226;75;1020;-56
2023/09/29 12:12:44;;;;;;;;;;;21.90;52.90;;;;;;1559595;75;713;-59
2023/09/29 12:14:46;;;;;;;;;;;21.90;52.90;;;;;;1557487;75;2126;-59
2023/09/29 12:16:48;;;;;;;;;;;21.90;52.80;;;;;;1562772;75;694;-56
2023/09/29 12:18:50;;;;;;;;;;;21.90;52.90;;;;;;1556342;76;755;-58
2023/09/29 12:20:53;;;;;;;;;;;21.90;52.90;;;;;;1552106;74;1100;-57
2023/09/29 12:22:57;;;;;;;;;;;21.90;52.80;;;;;;1560937;75;682;-57
2023/09/29 12:24:59;;;;;;;;;;;21.90;52.90;;;;;;1561233;75;1603;-57
2023/09/29 12:27:01;;;;;;;;;;;21.90;52.90;;;;;;1563907;74;762;-55
2023/09/29 12:29:05;;;;;;;;;;;21.90;52.80;;;;;;1555755;76;782;-57
2023/09/29 12:31:14;;;;;;;;;;;21.90;52.80;;;;;;1551462;76;1082;-57
2023/09/29 12:33:16;;;;;;;;;;;21.90;52.80;;;;;;1565377;74;1482;-57
2023/09/29 12:35:18;;;;;;;;;;;21.90;52.90;;;;;;1561556;74;1949;-58
2023/09/29 12:37:20;;;;;;;;;;;21.90;52.80;;;;;;1550551;75;1128;-58
2023/09/29 12:39:22;;;;;;;;;;;21.90;52.80;;;;;;1549907;75;662;-57
2023/09/29 12:41:25;;;;;;;;;;;21.90;52.60;;;;;;1557961;73;1219;-57
2023/09/29 12:43:27;;;;;;;;;;;21.90;52.80;;;;;;1552140;75;711;-57
2023/09/29 12:45:29;;;;;;;;;;;21.90;52.70;;;;;;1548232;75;756;-55
2023/09/29 12:47:31;;;;;;;;;;;21.90;52.80;;;;;;1549888;75;723;-57
2023/09/29 12:49:33;;;;;;;;;;;21.90;52.80;;;;;;1544901;75;815;-58
2023/09/29 12:51:35;;;;;;;;;;;21.90;52.90;;;;;;1548887;75;1110;-57
2023/09/29 12:53:36;;;;;;;;;;;21.90;52.80;;;;;;1541211;75;717;-59
2023/09/29 12:55:39;;;;;;;;;;;21.90;52.80;;;;;;1542312;75;1946;-56
2023/09/29 12:57:43;;;;;;;;;;;21.90;52.90;;;;;;1553492;75;640;-58
2023/09/29 12:59:44;;;;;;;;;;;21.90;52.90;;;;;;1543085;75;804;-58
2023/09/29 13:01:46;;;;;;;;;;;21.90;52.80;;;;;;1546644;75;1172;-56
2023/09/29 13:03:48;;;;;;;;;;;21.90;52.80;;;;;;1545010;75;735;-56
2023/09/29 13:05:50;;;;;;;;;;;21.90;52.80;;;;;;1543411;75;777;-57
2023/09/29 13:07:53;;;;;;;;;;;21.90;52.80;;;;;;1549328;75;722;-57
2023/09/29 13:09:55;;;;;;;;;;;21.90;52.80;;;;;;1558186;75;725;-57
2023/09/29 13:11:57;;;;;;;;;;;21.90;52.70;;;;;;1541987;75;1151;-56
2023/09/29 13:13:59;;;;;;;;;;;21.90;52.80;;;;;;1540325;75;769;-56
2023/09/29 13:16:01;;;;;;;;;;;21.90;52.80;;;;;;1558368;75;1946;-57
2023/09/29 13:18:03;;;;;;;;;;;21.90;52.90;;;;;;1548196;75;751;-58
2023/09/29 13:20:06;;;;;;;;;;;21.90;52.80;;;;;;1549782;75;1151;-58
2023/09/29 13:22:08;;;;;;;;;;;21.90;52.80;;;;;;1553439;75;730;-58
2023/09/29 13:24:12;;;;;;;;;;;21.90;52.80;;;;;;1549542;75;769;-55
2023/09/29 13:26:14;;;;;;;;;;;21.90;52.80;;;;;;1546509;75;1662;-57
2023/09/29 13:28:16;;;;;;;;;;;21.90;52.80;;;;;;1554220;75;799;-58
2023/09/29 13:30:18;;;;;;;;;;;21.90;52.70;;;;;;1554420;75;1544;-56
2023/09/29 13:32:20;;;;;;;;;;;21.90;52.80;;;;;;1537987;75;737;-59
2023/09/29 13:34:22;;;;;;;;;;;21.90;52.70;;;;;;1545366;75;942;-57
2023/09/29 13:36:24;;;;;;;;;;;21.90;52.80;;;;;;1545435;75;1920;-57
2023/09/29 13:38:26;;;;;;;;;;;21.90;52.70;;;;;;1545188;75;803;-57
2023/09/29 13:40:27;;;;;;;;;;;21.90;52.60;;;;;;1540930;75;1147;-57
2023/09/29 13:42:29;;;;;;;;;;;22.00;52.80;;;;;;1542391;75;703;-55
2023/09/29 13:44:31;;;;;;;;;;;21.90;52.80;;;;;;1550854;75;727;-57
2023/09/29 13:46:33;;;;;;;;;;;21.90;52.80;;;;;;1549643;75;691;-57
2023/09/29 13:48:35;;;;;;;;;;;21.90;52.80;;;;;;1558352;75;746;-59
2023/09/29 13:50:37;;;;;;;;;;;21.90;52.80;;;;;;1541005;75;1175;-57
2023/09/29 13:52:40;;;;;;;;;;;21.90;52.90;;;;;;1553618;75;707;-58
2023/09/29 13:54:43;;;;;;;;;;;21.90;52.90;;;;;;1549546;75;1918;-57
2023/09/29 13:56:45;;;;;;;;;;;21.90;53.00;;;;;;1555954;75;766;-57
2023/09/29 13:58:47;;;;;;;;;;;21.90;53.00;;;;;;1553561;75;884;-60
2023/09/29 14:00:50;;;;;;;;;;;21.90;52.90;;;;;;1544616;75;1153;-57
2023/09/29 14:02:52;;;;;;;;;;;21.90;53.00;;;;;;1539555;75;661;-58
2023/09/29 14:04:55;;;;;;;;;;;21.90;52.90;;;;;;1544315;75;806;-59
2023/09/29 14:06:57;;;;;;;;;;;21.90;52.80;;;;;;1544416;75;677;-57
2023/09/29 14:08:59;;;;;;;;;;;21.90;52.90;;;;;;1546209;75;697;-57
2023/09/29 14:11:00;;;;;;;;;;;21.90;52.90;;;;;;1548162;75;1154;-57
2023/09/29 14:13:03;;;;;;;;;;;21.90;52.90;;;;;;1540241;75;768;-57
2023/09/29 14:15:05;;;;;;;;;;;21.90;52.90;;;;;;1559747;75;1911;-59
2023/09/29 14:17:07;;;;;;;;;;;21.90;52.90;;;;;;1559612;75;792;-58
2023/09/29 14:19:09;;;;;;;;;;;21.90;52.90;;;;;;1547203;75;735;-57
2023/09/29 14:21:11;;;;;;;;;;;21.90;52.80;;;;;;1552906;75;1186;-57
2023/09/29 14:23:12;;;;;;;;;;;22.10;52.80;;;;;;1546443;75;657;-56
2023/09/29 14:25:14;;;;;;;;;;;22.00;52.80;;;;;;1553494;75;1308;-56
2023/09/29 14:27:16;;;;;;;;;;;22.00;52.80;;;;;;1556516;75;734;-57
2023/09/29 14:29:18;;;;;;;;;;;22.00;53.00;;;;;;1543244;75;695;-58
2023/09/29 14:31:20;;;;;;;;;;;22.00;52.90;;;;;;1544084;75;1397;-57